sensor_id;sensor_type;location;lat;lon;timestamp;pressure;altitude;pressure_sealevel;temperature;humidity
11912;BME280;6016;41.928;25.556;2023-04-28T00:00:52;99259.03;;;12.29;72.66
11912;BME280;6016;41.928;25.556;2023-04-28T00:03:19;99254.44;;;12.31;72.13
11912;BME280;6016;41.928;25.556;2023-04-28T00:05:46;99215.69;;;12.12;70.12
11912;BME280;6016;41.928;25.556;2023-04-28T00:08:13;99255.78;;;12.35;70.23
11912;BME280;6016;41.928;25.556;2023-04-28T00:10:40;99159.91;;;11.77;68.04
11912;BME280;6016;41.928;25.556;2023-04-28T00:13:07;99262.75;;;12.36;68.05
11912;BME280;6016;41.928;25.556;2023-04-28T00:15:35;99263.41;;;12.38;67.34
11912;BME280;6016;41.928;25.556;2023-04-28T00:18:02;99264.13;;;12.40;66.47
11912;BME280;6016;41.928;25.556;2023-04-28T00:20:28;99264.41;;;12.37;67.42
11912;BME280;6016;41.928;25.556;2023-04-28T00:22:55;99266.22;;;12.36;65.58
11912;BME280;6016;41.928;25.556;2023-04-28T00:25:22;99263.72;;;12.35;65.35
11912;BME280;6016;41.928;25.556;2023-04-28T00:27:49;99269.84;;;12.35;65.31
11912;BME280;6016;41.928;25.556;2023-04-28T00:30:16;99263.88;;;12.33;65.21
11912;BME280;6016;41.928;25.556;2023-04-28T00:32:44;99262.91;;;12.34;65.27
11912;BME280;6016;41.928;25.556;2023-04-28T00:35:11;99271.13;;;12.31;65.31
11912;BME280;6016;41.928;25.556;2023-04-28T00:37:38;99181.84;;;11.77;63.72
11912;BME280;6016;41.928;25.556;2023-04-28T00:40:06;99257.50;;;12.26;64.35
11912;BME280;6016;41.928;25.556;2023-04-28T00:42:33;99262.13;;;12.24;64.07
11912;BME280;6016;41.928;25.556;2023-04-28T00:44:59;99265.44;;;12.26;63.80
11912;BME280;6016;41.928;25.556;2023-04-28T00:47:30;99078.97;;;11.10;63.05
11912;BME280;6016;41.928;25.556;2023-04-28T00:49:59;99269.81;;;12.17;61.80
11912;BME280;6016;41.928;25.556;2023-04-28T00:52:26;99257.88;;;12.03;62.38
11912;BME280;6016;41.928;25.556;2023-04-28T00:54:53;99207.91;;;11.72;62.34
11912;BME280;6016;41.928;25.556;2023-04-28T00:57:21;99268.41;;;12.13;62.27
11912;BME280;6016;41.928;25.556;2023-04-28T00:59:48;99252.19;;;11.98;60.62
11912;BME280;6016;41.928;25.556;2023-04-28T01:02:14;99276.88;;;12.17;62.33
11912;BME280;6016;41.928;25.556;2023-04-28T01:04:43;99281.63;;;12.13;62.07
11912;BME280;6016;41.928;25.556;2023-04-28T01:07:11;99215.41;;;11.67;60.40
11912;BME280;6016;41.928;25.556;2023-04-28T01:09:38;99201.69;;;11.53;61.25
11912;BME280;6016;41.928;25.556;2023-04-28T01:12:05;99216.41;;;11.56;59.64
11912;BME280;6016;41.928;25.556;2023-04-28T01:14:32;99279.28;;;12.00;59.61
11912;BME280;6016;41.928;25.556;2023-04-28T01:17:00;99266.25;;;11.89;60.05
11912;BME280;6016;41.928;25.556;2023-04-28T01:19:27;99285.31;;;11.92;60.77
11912;BME280;6016;41.928;25.556;2023-04-28T01:21:54;99280.69;;;11.94;60.69
11912;BME280;6016;41.928;25.556;2023-04-28T01:24:22;99287.25;;;11.90;61.92
11912;BME280;6016;41.928;25.556;2023-04-28T01:26:49;99246.97;;;11.68;60.38
11912;BME280;6016;41.928;25.556;2023-04-28T01:29:16;99246.31;;;11.57;59.86
11912;BME280;6016;41.928;25.556;2023-04-28T01:31:42;99278.09;;;11.75;58.27
11912;BME280;6016;41.928;25.556;2023-04-28T01:34:09;99206.47;;;11.30;58.73
11912;BME280;6016;41.928;25.556;2023-04-28T01:36:36;99275.75;;;11.72;58.62
11912;BME280;6016;41.928;25.556;2023-04-28T01:39:03;99282.56;;;11.74;58.04
11912;BME280;6016;41.928;25.556;2023-04-28T01:41:31;99281.97;;;11.80;58.43
11912;BME280;6016;41.928;25.556;2023-04-28T01:43:58;99287.44;;;11.79;58.08
11912;BME280;6016;41.928;25.556;2023-04-28T01:46:25;99286.63;;;11.68;56.93
11912;BME280;6016;41.928;25.556;2023-04-28T01:48:52;99289.81;;;11.72;59.03
11912;BME280;6016;41.928;25.556;2023-04-28T01:51:19;99296.34;;;11.78;58.26
11912;BME280;6016;41.928;25.556;2023-04-28T01:53:46;99288.94;;;11.81;59.29
11912;BME280;6016;41.928;25.556;2023-04-28T01:56:12;99286.44;;;11.80;59.40
11912;BME280;6016;41.928;25.556;2023-04-28T01:58:41;99292.97;;;11.86;58.79
11912;BME280;6016;41.928;25.556;2023-04-28T02:01:07;99291.75;;;11.80;57.80
11912;BME280;6016;41.928;25.556;2023-04-28T02:03:34;99290.19;;;11.77;56.36
11912;BME280;6016;41.928;25.556;2023-04-28T02:06:01;99296.75;;;11.73;58.68
11912;BME280;6016;41.928;25.556;2023-04-28T02:08:28;99290.19;;;11.77;58.00
11912;BME280;6016;41.928;25.556;2023-04-28T02:10:55;99272.72;;;11.66;57.52
11912;BME280;6016;41.928;25.556;2023-04-28T02:13:22;99272.03;;;11.64;57.00
11912;BME280;6016;41.928;25.556;2023-04-28T02:15:50;99300.06;;;11.85;57.44
11912;BME280;6016;41.928;25.556;2023-04-28T02:18:17;99298.41;;;11.84;57.98
11912;BME280;6016;41.928;25.556;2023-04-28T02:20:44;99300.22;;;11.84;56.60
11912;BME280;6016;41.928;25.556;2023-04-28T02:23:11;99283.00;;;11.70;57.47
11912;BME280;6016;41.928;25.556;2023-04-28T02:25:38;99310.63;;;11.85;57.27
11912;BME280;6016;41.928;25.556;2023-04-28T02:28:05;99310.91;;;11.82;56.32
11912;BME280;6016;41.928;25.556;2023-04-28T02:30:32;99311.88;;;11.91;57.43
11912;BME280;6016;41.928;25.556;2023-04-28T02:33:00;99315.91;;;11.95;57.16
11912;BME280;6016;41.928;25.556;2023-04-28T02:35:27;99289.41;;;11.57;57.17
11912;BME280;6016;41.928;25.556;2023-04-28T02:37:54;99324.13;;;12.02;57.06
11912;BME280;6016;41.928;25.556;2023-04-28T02:40:20;99323.00;;;11.94;55.27
11912;BME280;6016;41.928;25.556;2023-04-28T02:42:47;99102.78;;;10.61;56.44
11912;BME280;6016;41.928;25.556;2023-04-28T02:45:14;99331.31;;;12.00;55.39
11912;BME280;6016;41.928;25.556;2023-04-28T02:47:41;98771.28;;;8.38;56.24
11912;BME280;6016;41.928;25.556;2023-04-28T02:50:09;99345.81;;;11.95;55.64
11912;BME280;6016;41.928;25.556;2023-04-28T02:52:36;99350.41;;;11.93;54.60
11912;BME280;6016;41.928;25.556;2023-04-28T02:55:04;99352.63;;;11.98;56.35
11912;BME280;6016;41.928;25.556;2023-04-28T02:57:31;99362.22;;;11.99;55.83
11912;BME280;6016;41.928;25.556;2023-04-28T02:59:57;99368.19;;;12.01;55.95
11912;BME280;6016;41.928;25.556;2023-04-28T03:02:24;99364.47;;;12.04;56.86
11912;BME280;6016;41.928;25.556;2023-04-28T03:04:51;99339.44;;;11.88;57.67
11912;BME280;6016;41.928;25.556;2023-04-28T03:07:19;99372.25;;;12.05;57.83
11912;BME280;6016;41.928;25.556;2023-04-28T03:09:46;99373.22;;;12.04;56.05
11912;BME280;6016;41.928;25.556;2023-04-28T03:12:13;99288.84;;;11.53;56.21
11912;BME280;6016;41.928;25.556;2023-04-28T03:14:40;99352.50;;;11.90;56.28
11912;BME280;6016;41.928;25.556;2023-04-28T03:17:07;99370.44;;;11.96;56.67
11912;BME280;6016;41.928;25.556;2023-04-28T03:19:33;99379.75;;;12.00;56.73
11912;BME280;6016;41.928;25.556;2023-04-28T03:22:00;99382.94;;;11.94;57.40
11912;BME280;6016;41.928;25.556;2023-04-28T03:24:28;99392.56;;;11.95;57.64
11912;BME280;6016;41.928;25.556;2023-04-28T03:26:55;99393.53;;;11.94;58.35
11912;BME280;6016;41.928;25.556;2023-04-28T03:29:22;99395.78;;;11.89;59.11
11912;BME280;6016;41.928;25.556;2023-04-28T03:31:50;99284.44;;;11.15;58.15
11912;BME280;6016;41.928;25.556;2023-04-28T03:34:17;99396.44;;;11.91;58.22
11912;BME280;6016;41.928;25.556;2023-04-28T03:36:45;99404.09;;;11.94;57.46
11912;BME280;6016;41.928;25.556;2023-04-28T03:39:11;99411.22;;;11.93;57.93
11912;BME280;6016;41.928;25.556;2023-04-28T03:41:40;99415.53;;;11.94;57.32
11912;BME280;6016;41.928;25.556;2023-04-28T03:44:06;99408.72;;;11.82;58.59
11912;BME280;6016;41.928;25.556;2023-04-28T03:46:33;99433.47;;;11.91;60.16
11912;BME280;6016;41.928;25.556;2023-04-28T03:49:00;99449.72;;;11.86;59.11
11912;BME280;6016;41.928;25.556;2023-04-28T03:51:27;99430.13;;;11.69;60.38
11912;BME280;6016;41.928;25.556;2023-04-28T03:53:54;99449.06;;;11.64;59.44
11912;BME280;6016;41.928;25.556;2023-04-28T03:56:21;99456.41;;;11.51;60.31
11912;BME280;6016;41.928;25.556;2023-04-28T03:58:49;99461.97;;;11.58;59.50
11912;BME280;6016;41.928;25.556;2023-04-28T04:01:16;99456.53;;;11.49;59.65
11912;BME280;6016;41.928;25.556;2023-04-28T04:03:43;99473.09;;;11.61;61.24
11912;BME280;6016;41.928;25.556;2023-04-28T04:06:10;99474.75;;;11.62;62.22
11912;BME280;6016;41.928;25.556;2023-04-28T04:08:37;99461.97;;;11.67;62.61
11912;BME280;6016;41.928;25.556;2023-04-28T04:11:03;99481.34;;;11.78;63.87
11912;BME280;6016;41.928;25.556;2023-04-28T04:13:30;99432.63;;;11.51;63.94
11912;BME280;6016;41.928;25.556;2023-04-28T04:15:59;99304.38;;;10.68;64.40
11912;BME280;6016;41.928;25.556;2023-04-28T04:18:25;99475.47;;;11.74;65.83
11912;BME280;6016;41.928;25.556;2023-04-28T04:20:52;99487.84;;;11.74;65.33
11912;BME280;6016;41.928;25.556;2023-04-28T04:23:20;99491.50;;;11.82;66.34
11912;BME280;6016;41.928;25.556;2023-04-28T04:25:47;99482.31;;;11.87;66.07
11912;BME280;6016;41.928;25.556;2023-04-28T04:28:14;99499.53;;;11.91;67.08
11912;BME280;6016;41.928;25.556;2023-04-28T04:30:41;99478.41;;;11.71;66.47
11912;BME280;6016;41.928;25.556;2023-04-28T04:33:09;99479.75;;;11.56;66.68
11912;BME280;6016;41.928;25.556;2023-04-28T04:35:36;99499.97;;;11.86;66.07
11912;BME280;6016;41.928;25.556;2023-04-28T04:38:03;99429.84;;;11.43;65.24
11912;BME280;6016;41.928;25.556;2023-04-28T04:40:29;99476.16;;;11.76;65.60
11912;BME280;6016;41.928;25.556;2023-04-28T04:42:56;99504.56;;;11.94;66.21
11912;BME280;6016;41.928;25.556;2023-04-28T04:45:23;99506.66;;;11.90;64.62
11912;BME280;6016;41.928;25.556;2023-04-28T04:47:51;99467.84;;;11.71;65.18
11912;BME280;6016;41.928;25.556;2023-04-28T04:50:19;99453.09;;;11.59;65.05
11912;BME280;6016;41.928;25.556;2023-04-28T04:52:46;99516.84;;;12.05;63.56
11912;BME280;6016;41.928;25.556;2023-04-28T04:55:12;99521.44;;;12.13;64.06
11912;BME280;6016;41.928;25.556;2023-04-28T04:57:39;99521.72;;;12.19;64.55
11912;BME280;6016;41.928;25.556;2023-04-28T05:00:07;99498.63;;;12.02;64.64
11912;BME280;6016;41.928;25.556;2023-04-28T05:02:34;99529.78;;;12.37;64.21
11912;BME280;6016;41.928;25.556;2023-04-28T05:05:01;99506.00;;;12.28;64.27
11912;BME280;6016;41.928;25.556;2023-04-28T05:07:29;99537.00;;;12.45;62.39
11912;BME280;6016;41.928;25.556;2023-04-28T05:09:56;99509.63;;;12.27;62.45
11912;BME280;6016;41.928;25.556;2023-04-28T05:12:23;99545.63;;;12.47;62.23
11912;BME280;6016;41.928;25.556;2023-04-28T05:14:50;99547.84;;;12.62;63.70
11912;BME280;6016;41.928;25.556;2023-04-28T05:17:17;99453.22;;;12.06;61.93
11912;BME280;6016;41.928;25.556;2023-04-28T05:19:43;99483.28;;;12.25;62.92
11912;BME280;6016;41.928;25.556;2023-04-28T05:22:10;99546.56;;;12.76;62.86
11912;BME280;6016;41.928;25.556;2023-04-28T05:24:38;99549.75;;;12.89;64.20
11912;BME280;6016;41.928;25.556;2023-04-28T05:27:05;99551.25;;;13.02;64.77
11912;BME280;6016;41.928;25.556;2023-04-28T05:29:32;99556.75;;;13.18;64.02
11912;BME280;6016;41.928;25.556;2023-04-28T05:31:59;99561.31;;;13.26;63.53
11912;BME280;6016;41.928;25.556;2023-04-28T05:34:26;99561.44;;;13.34;62.75
11912;BME280;6016;41.928;25.556;2023-04-28T05:36:52;99566.84;;;13.43;62.20
11912;BME280;6016;41.928;25.556;2023-04-28T05:39:19;99571.31;;;13.42;58.64
11912;BME280;6016;41.928;25.556;2023-04-28T05:41:47;99576.88;;;13.49;62.15
11912;BME280;6016;41.928;25.556;2023-04-28T05:44:14;99577.56;;;13.51;60.55
11912;BME280;6016;41.928;25.556;2023-04-28T05:46:41;99540.69;;;13.30;59.48
11912;BME280;6016;41.928;25.556;2023-04-28T05:49:08;99580.94;;;13.53;57.54
11912;BME280;6016;41.928;25.556;2023-04-28T05:51:35;99581.44;;;13.57;59.39
11912;BME280;6016;41.928;25.556;2023-04-28T05:54:03;99587.97;;;13.62;61.53
11912;BME280;6016;41.928;25.556;2023-04-28T05:56:29;99544.44;;;13.37;59.94
11912;BME280;6016;41.928;25.556;2023-04-28T05:58:58;99590.78;;;13.61;60.80
11912;BME280;6016;41.928;25.556;2023-04-28T06:01:28;99591.59;;;13.61;61.48
11912;BME280;6016;41.928;25.556;2023-04-28T06:03:55;99598.44;;;13.64;63.13
11912;BME280;6016;41.928;25.556;2023-04-28T06:06:23;99382.66;;;12.17;62.27
11912;BME280;6016;41.928;25.556;2023-04-28T06:08:50;99597.50;;;13.55;62.09
11912;BME280;6016;41.928;25.556;2023-04-28T06:11:17;99604.31;;;13.58;57.98
11912;BME280;6016;41.928;25.556;2023-04-28T06:13:46;99578.16;;;13.45;58.67
11912;BME280;6016;41.928;25.556;2023-04-28T06:16:15;99579.94;;;13.54;59.89
11912;BME280;6016;41.928;25.556;2023-04-28T06:18:43;99602.03;;;13.73;57.06
11912;BME280;6016;41.928;25.556;2023-04-28T06:21:10;99604.28;;;13.68;55.96
11912;BME280;6016;41.928;25.556;2023-04-28T06:23:37;99587.28;;;13.60;57.29
11912;BME280;6016;41.928;25.556;2023-04-28T06:26:05;99259.78;;;11.63;56.19
11912;BME280;6016;41.928;25.556;2023-04-28T06:28:32;99595.28;;;13.78;56.32
11912;BME280;6016;41.928;25.556;2023-04-28T06:30:59;99606.38;;;13.92;55.47
11912;BME280;6016;41.928;25.556;2023-04-28T06:33:27;99605.56;;;13.91;54.67
11912;BME280;6016;41.928;25.556;2023-04-28T06:35:54;99597.63;;;13.82;54.24
11912;BME280;6016;41.928;25.556;2023-04-28T06:38:21;99606.19;;;13.75;54.33
11912;BME280;6016;41.928;25.556;2023-04-28T06:40:48;99610.84;;;13.63;55.79
11912;BME280;6016;41.928;25.556;2023-04-28T06:43:15;99439.78;;;12.57;53.02
11912;BME280;6016;41.928;25.556;2023-04-28T06:45:41;99613.31;;;13.75;55.06
11912;BME280;6016;41.928;25.556;2023-04-28T06:48:08;99609.22;;;13.81;55.58
11912;BME280;6016;41.928;25.556;2023-04-28T06:50:37;99612.81;;;13.89;56.61
11912;BME280;6016;41.928;25.556;2023-04-28T06:53:04;99610.41;;;13.96;55.42
11912;BME280;6016;41.928;25.556;2023-04-28T06:55:32;99616.47;;;14.06;54.75
11912;BME280;6016;41.928;25.556;2023-04-28T06:57:59;99595.22;;;14.16;54.48
11912;BME280;6016;41.928;25.556;2023-04-28T07:00:26;99604.53;;;14.39;54.16
11912;BME280;6016;41.928;25.556;2023-04-28T07:02:53;99603.09;;;14.44;53.50
11912;BME280;6016;41.928;25.556;2023-04-28T07:05:19;99594.69;;;14.49;54.10
11912;BME280;6016;41.928;25.556;2023-04-28T07:07:48;99492.44;;;14.00;54.42
11912;BME280;6016;41.928;25.556;2023-04-28T07:10:14;99609.38;;;14.61;55.38
11912;BME280;6016;41.928;25.556;2023-04-28T07:12:41;99607.75;;;14.69;55.02
11912;BME280;6016;41.928;25.556;2023-04-28T07:15:09;99611.03;;;14.62;53.77
11912;BME280;6016;41.928;25.556;2023-04-28T07:17:36;99614.31;;;14.56;54.17
11912;BME280;6016;41.928;25.556;2023-04-28T07:20:03;99610.44;;;14.32;59.08
11912;BME280;6016;41.928;25.556;2023-04-28T07:22:30;99615.00;;;14.22;56.44
11912;BME280;6016;41.928;25.556;2023-04-28T07:24:58;99614.47;;;14.37;54.90
11912;BME280;6016;41.928;25.556;2023-04-28T07:27:25;99610.22;;;14.44;55.33
11912;BME280;6016;41.928;25.556;2023-04-28T07:29:52;99613.69;;;14.62;52.29
11912;BME280;6016;41.928;25.556;2023-04-28T07:32:18;99581.78;;;14.36;53.99
11912;BME280;6016;41.928;25.556;2023-04-28T07:34:45;99612.94;;;14.52;54.87
11912;BME280;6016;41.928;25.556;2023-04-28T07:37:12;99616.19;;;14.46;53.20
11912;BME280;6016;41.928;25.556;2023-04-28T07:39:39;99604.34;;;14.58;51.38
11912;BME280;6016;41.928;25.556;2023-04-28T07:42:08;99568.97;;;14.31;51.60
11912;BME280;6016;41.928;25.556;2023-04-28T07:44:35;99601.47;;;14.70;51.15
11912;BME280;6016;41.928;25.556;2023-04-28T07:47:02;99596.94;;;14.80;51.98
11912;BME280;6016;41.928;25.556;2023-04-28T07:49:29;99585.22;;;14.91;51.99
11912;BME280;6016;41.928;25.556;2023-04-28T07:51:56;99588.97;;;15.07;51.06
11912;BME280;6016;41.928;25.556;2023-04-28T07:54:23;99590.06;;;15.22;50.45
11912;BME280;6016;41.928;25.556;2023-04-28T07:56:50;99590.72;;;15.24;52.09
11912;BME280;6016;41.928;25.556;2023-04-28T07:59:18;99585.19;;;15.44;52.75
11912;BME280;6016;41.928;25.556;2023-04-28T08:01:45;99532.53;;;15.04;49.73
11912;BME280;6016;41.928;25.556;2023-04-28T08:04:12;99540.56;;;15.29;50.33
11912;BME280;6016;41.928;25.556;2023-04-28T08:06:39;99580.78;;;15.69;49.25
11912;BME280;6016;41.928;25.556;2023-04-28T08:09:06;99578.94;;;15.61;47.74
11912;BME280;6016;41.928;25.556;2023-04-28T08:11:33;99578.97;;;15.70;50.86
11912;BME280;6016;41.928;25.556;2023-04-28T08:14:00;99584.78;;;15.65;49.40
11912;BME280;6016;41.928;25.556;2023-04-28T08:16:29;99579.34;;;15.83;49.70
11912;BME280;6016;41.928;25.556;2023-04-28T08:18:57;99581.50;;;15.80;49.07
11912;BME280;6016;41.928;25.556;2023-04-28T08:21:24;99580.78;;;15.69;51.11
11912;BME280;6016;41.928;25.556;2023-04-28T08:23:51;99572.00;;;15.77;49.20
11912;BME280;6016;41.928;25.556;2023-04-28T08:26:18;99553.09;;;15.80;53.21
11912;BME280;6016;41.928;25.556;2023-04-28T08:28:45;99570.28;;;16.02;49.92
11912;BME280;6016;41.928;25.556;2023-04-28T08:31:12;99573.47;;;16.31;48.77
11912;BME280;6016;41.928;25.556;2023-04-28T08:33:40;99566.50;;;16.47;46.34
11912;BME280;6016;41.928;25.556;2023-04-28T08:36:09;99566.31;;;16.31;45.03
11912;BME280;6016;41.928;25.556;2023-04-28T08:38:39;99503.59;;;16.12;51.93
11912;BME280;6016;41.928;25.556;2023-04-28T08:41:06;99555.66;;;16.65;45.09
11912;BME280;6016;41.928;25.556;2023-04-28T08:43:34;99541.66;;;16.71;44.15
11912;BME280;6016;41.928;25.556;2023-04-28T08:46:04;99557.78;;;17.02;42.64
11912;BME280;6016;41.928;25.556;2023-04-28T08:48:38;99554.25;;;17.19;41.95
11912;BME280;6016;41.928;25.556;2023-04-28T08:51:07;99502.03;;;16.76;44.82
11912;BME280;6016;41.928;25.556;2023-04-28T08:53:36;99543.78;;;16.92;45.39
11912;BME280;6016;41.928;25.556;2023-04-28T08:56:05;99474.41;;;16.69;47.60
11912;BME280;6016;41.928;25.556;2023-04-28T08:58:34;99543.88;;;17.24;46.90
11912;BME280;6016;41.928;25.556;2023-04-28T09:01:01;99543.22;;;17.30;43.52
11912;BME280;6016;41.928;25.556;2023-04-28T09:03:29;99550.75;;;17.58;43.69
11912;BME280;6016;41.928;25.556;2023-04-28T09:05:56;99538.56;;;17.64;42.34
11912;BME280;6016;41.928;25.556;2023-04-28T09:08:24;99542.47;;;17.44;45.22
11912;BME280;6016;41.928;25.556;2023-04-28T09:11:04;99530.28;;;17.50;43.29
11912;BME280;6016;41.928;25.556;2023-04-28T09:13:31;99538.69;;;17.70;41.01
11912;BME280;6016;41.928;25.556;2023-04-28T09:15:59;99542.13;;;17.79;46.43
11912;BME280;6016;41.928;25.556;2023-04-28T09:18:27;99528.31;;;17.76;45.43
11912;BME280;6016;41.928;25.556;2023-04-28T09:21:02;99532.09;;;18.13;41.23
11912;BME280;6016;41.928;25.556;2023-04-28T09:23:30;99493.00;;;17.97;41.79
11912;BME280;6016;41.928;25.556;2023-04-28T09:25:59;99520.56;;;18.36;40.67
11912;BME280;6016;41.928;25.556;2023-04-28T09:28:26;99498.63;;;18.25;44.77
11912;BME280;6016;41.928;25.556;2023-04-28T09:30:54;99519.56;;;18.37;38.70
11912;BME280;6016;41.928;25.556;2023-04-28T09:33:21;99494.50;;;18.38;41.57
11912;BME280;6016;41.928;25.556;2023-04-28T09:35:48;99482.78;;;18.00;38.97
11912;BME280;6016;41.928;25.556;2023-04-28T09:38:15;99516.81;;;17.98;40.24
11912;BME280;6016;41.928;25.556;2023-04-28T09:40:51;99439.16;;;17.70;41.85
11912;BME280;6016;41.928;25.556;2023-04-28T09:43:22;99499.19;;;18.59;41.42
11912;BME280;6016;41.928;25.556;2023-04-28T09:45:49;99502.38;;;18.69;38.29
11912;BME280;6016;41.928;25.556;2023-04-28T09:48:16;99499.09;;;18.82;38.62
11912;BME280;6016;41.928;25.556;2023-04-28T09:50:43;99504.06;;;18.86;39.81
11912;BME280;6016;41.928;25.556;2023-04-28T09:53:10;99493.22;;;19.02;40.34
11912;BME280;6016;41.928;25.556;2023-04-28T09:55:43;99480.50;;;19.04;38.77
11912;BME280;6016;41.928;25.556;2023-04-28T09:58:13;99488.50;;;19.19;36.62
11912;BME280;6016;41.928;25.556;2023-04-28T10:00:40;99441.59;;;19.02;35.30
11912;BME280;6016;41.928;25.556;2023-04-28T10:03:08;99333.25;;;18.24;37.41
11912;BME280;6016;41.928;25.556;2023-04-28T10:05:36;99451.81;;;18.83;37.61
11912;BME280;6016;41.928;25.556;2023-04-28T10:08:05;99476.16;;;18.88;37.70
11912;BME280;6016;41.928;25.556;2023-04-28T10:10:32;99440.56;;;18.58;39.93
11912;BME280;6016;41.928;25.556;2023-04-28T10:12:59;99474.50;;;18.87;40.29
11912;BME280;6016;41.928;25.556;2023-04-28T10:15:29;99364.84;;;17.82;42.27
11912;BME280;6016;41.928;25.556;2023-04-28T10:17:56;99425.31;;;18.13;39.58
11912;BME280;6016;41.928;25.556;2023-04-28T10:20:25;99468.38;;;18.48;39.33
11912;BME280;6016;41.928;25.556;2023-04-28T10:23:01;99475.56;;;18.63;40.92
11912;BME280;6016;41.928;25.556;2023-04-28T10:25:32;99470.03;;;18.49;41.46
11912;BME280;6016;41.928;25.556;2023-04-28T10:28:04;99434.00;;;18.30;40.21
11912;BME280;6016;41.928;25.556;2023-04-28T10:30:33;99462.88;;;18.65;38.51
11912;BME280;6016;41.928;25.556;2023-04-28T10:33:21;99460.31;;;18.72;38.29
11912;BME280;6016;41.928;25.556;2023-04-28T10:35:48;99455.41;;;18.90;39.23
11912;BME280;6016;41.928;25.556;2023-04-28T10:38:16;99452.09;;;18.88;36.84
11912;BME280;6016;41.928;25.556;2023-04-28T10:40:45;99451.28;;;18.73;37.77
11912;BME280;6016;41.928;25.556;2023-04-28T10:43:13;99443.44;;;18.71;39.23
11912;BME280;6016;41.928;25.556;2023-04-28T10:46:04;99442.78;;;18.69;37.65
11912;BME280;6016;41.928;25.556;2023-04-28T10:49:01;99442.13;;;18.97;37.77
11912;BME280;6016;41.928;25.556;2023-04-28T10:51:28;99427.47;;;18.78;38.00
11912;BME280;6016;41.928;25.556;2023-04-28T10:54:17;99378.34;;;18.04;37.44
11912;BME280;6016;41.928;25.556;2023-04-28T10:57:19;99437.91;;;18.58;40.05
11912;BME280;6016;41.928;25.556;2023-04-28T10:59:50;99441.78;;;18.70;38.82
11912;BME280;6016;41.928;25.556;2023-04-28T11:02:39;99434.28;;;19.10;39.02
11912;BME280;6016;41.928;25.556;2023-04-28T11:05:10;99426.03;;;19.05;38.52
11912;BME280;6016;41.928;25.556;2023-04-28T11:07:37;99425.88;;;19.14;38.24
11912;BME280;6016;41.928;25.556;2023-04-28T11:10:05;99428.13;;;18.95;36.28
11912;BME280;6016;41.928;25.556;2023-04-28T11:12:32;99428.16;;;18.65;41.89
11912;BME280;6016;41.928;25.556;2023-04-28T11:15:10;99328.72;;;18.24;38.56
11912;BME280;6016;41.928;25.556;2023-04-28T11:17:41;99420.13;;;18.65;38.78
11912;BME280;6016;41.928;25.556;2023-04-28T11:20:12;99424.91;;;18.69;36.67
11912;BME280;6016;41.928;25.556;2023-04-28T11:22:40;99410.91;;;18.67;37.69
11912;BME280;6016;41.928;25.556;2023-04-28T11:25:07;99424.44;;;18.81;37.98
11912;BME280;6016;41.928;25.556;2023-04-28T11:27:34;99410.44;;;18.79;40.94
11912;BME280;6016;41.928;25.556;2023-04-28T11:30:02;99424.59;;;18.94;38.82
11912;BME280;6016;41.928;25.556;2023-04-28T11:32:31;99424.00;;;18.77;39.24
11912;BME280;6016;41.928;25.556;2023-04-28T11:35:00;99421.75;;;18.81;38.17
11912;BME280;6016;41.928;25.556;2023-04-28T11:37:28;99433.38;;;18.88;38.83
11912;BME280;6016;41.928;25.556;2023-04-28T11:39:54;99433.94;;;18.83;41.08
11912;BME280;6016;41.928;25.556;2023-04-28T11:42:22;99431.25;;;18.68;37.66
11912;BME280;6016;41.928;25.556;2023-04-28T11:44:51;99428.59;;;18.53;37.90
11912;BME280;6016;41.928;25.556;2023-04-28T11:47:27;99415.19;;;18.08;41.00
11912;BME280;6016;41.928;25.556;2023-04-28T11:49:54;99421.94;;;18.34;40.91
11912;BME280;6016;41.928;25.556;2023-04-28T11:52:23;99425.00;;;18.46;40.76
11912;BME280;6016;41.928;25.556;2023-04-28T11:54:55;99346.69;;;18.16;42.17
11912;BME280;6016;41.928;25.556;2023-04-28T11:57:22;99415.03;;;19.00;40.11
11912;BME280;6016;41.928;25.556;2023-04-28T11:59:49;99422.31;;;19.21;38.19
11912;BME280;6016;41.928;25.556;2023-04-28T12:02:24;99419.91;;;19.48;36.55
11912;BME280;6016;41.928;25.556;2023-04-28T12:04:52;99058.59;;;17.47;37.88
11912;BME280;6016;41.928;25.556;2023-04-28T12:07:19;99405.66;;;19.26;36.80
11912;BME280;6016;41.928;25.556;2023-04-28T12:09:56;99415.47;;;18.89;43.90
11912;BME280;6016;41.928;25.556;2023-04-28T12:12:34;99402.78;;;18.31;41.59
11912;BME280;6016;41.928;25.556;2023-04-28T12:15:02;99361.97;;;18.07;41.96
11912;BME280;6016;41.928;25.556;2023-04-28T12:17:32;99393.38;;;18.80;41.77
11912;BME280;6016;41.928;25.556;2023-04-28T12:20:00;99390.91;;;19.30;37.98
11912;BME280;6016;41.928;25.556;2023-04-28T12:22:28;99382.75;;;19.38;36.63
11912;BME280;6016;41.928;25.556;2023-04-28T12:25:04;99377.25;;;19.25;39.42
11912;BME280;6016;41.928;25.556;2023-04-28T12:27:32;99341.16;;;18.77;39.11
11912;BME280;6016;41.928;25.556;2023-04-28T12:29:59;99359.97;;;19.06;39.54
11912;BME280;6016;41.928;25.556;2023-04-28T12:32:39;99359.31;;;19.62;38.81
11912;BME280;6016;41.928;25.556;2023-04-28T12:35:08;99363.63;;;19.85;38.06
11912;BME280;6016;41.928;25.556;2023-04-28T12:37:35;99360.25;;;19.98;38.56
11912;BME280;6016;41.928;25.556;2023-04-28T12:40:05;99357.75;;;19.96;41.92
11912;BME280;6016;41.928;25.556;2023-04-28T12:42:33;99351.16;;;19.92;38.99
11912;BME280;6016;41.928;25.556;2023-04-28T12:44:59;99343.56;;;19.74;38.96
11912;BME280;6016;41.928;25.556;2023-04-28T12:47:26;99350.81;;;19.80;40.14
11912;BME280;6016;41.928;25.556;2023-04-28T12:49:56;99293.94;;;19.21;39.38
11912;BME280;6016;41.928;25.556;2023-04-28T12:52:23;99324.66;;;19.54;40.31
11912;BME280;6016;41.928;25.556;2023-04-28T12:54:49;99346.22;;;19.96;38.35
11912;BME280;6016;41.928;25.556;2023-04-28T12:57:18;99343.94;;;19.93;38.62
11912;BME280;6016;41.928;25.556;2023-04-28T12:59:45;99147.88;;;18.55;35.09
11912;BME280;6016;41.928;25.556;2023-04-28T13:02:13;99334.66;;;19.45;35.26
11912;BME280;6016;41.928;25.556;2023-04-28T13:04:40;99154.91;;;18.19;36.03